Tyler, Washington
Current Conditions -  °F | °C
As of 8:58 PM on Thursday 25 Dec 2014 (Local Time) from KSKA Reporting Station
Overcast Overcast  
Wind Chill: 31°   Ceiling: 8000
Heat Index: 31°   Visibility: 10mi
Dew Point: 28°   Wind: 2mph
Humidity: 87%   Direction: 250°WSW
Pressure: 30.08"   Gusts: NA
Location:  47.411°N, 117.628°W
Report Text: KSKA 260458Z AUTO 25002KT 10SM OVC080 00/M02 A3008 RMK AO2 UPB22E32 SLP213 P0000 T10041024
Loading
Personal Weather Stations






























Interactive Weather Map New forecast layout! Learn more

10-Day Weather Forecast

Advertisements
Track Severe Weather on mobile